Time;durP1;ratioP1;P1;durP2;ratioP2;P2;SDS_P1;SDS_P2;PMS_P1;PMS_P2;Temp;Humidity;BMP_temperature;BMP_pressure;BME280_temperature;BME280_humidity;BME280_pressure;Samples;Min_cycle;Max_cycle;Signal;HPM_P1;HPM_P2
2022/02/09 00:00:17;;;;;;;;;;;;;;;;;;2135292;27;20062;-77
2022/02/09 00:01:47;;;;;;;;;;;;;;;;;;2135166;27;19951;-76
2022/02/09 00:03:07;;;;;;;;;;;;;;;;;;2135470;27;19923;-76
2022/02/09 00:04:20;;;;;;;;;;;;;;;;;;2134963;27;19923;-76
2022/02/09 00:05:41;;;;;;;;;;;;;;;;;;2134763;27;19928;-76
2022/02/09 00:07:06;;;;;;;;;;;;;;;;;;2135374;27;19923;-76
2022/02/09 00:08:09;;;;;;;;;;;;;;;;;;2135231;27;19930;-75
2022/02/09 00:09:11;;;;;;;;;;;;;;;;;;2135701;27;19923;-76
2022/02/09 00:10:15;;;;;;;;;;;;;;;;;;2135076;27;19978;-75
2022/02/09 00:11:26;;;;;;;;;;;;;;;;;;2134623;27;19931;-76
2022/02/09 00:12:37;;;;;;;;;;;;;;;;;;2135038;27;20008;-76
2022/02/09 00:13:55;;;;;;;;;;;;;;;;;;2134830;27;20699;-77
2022/02/09 00:15:17;;;;;;;;;;;;;;;;;;2135218;27;19969;-77
2022/02/09 00:16:54;;;;;;;;;;;;;;;;;;2134993;27;19931;-76
2022/02/09 00:18:59;;;;;;;;;;;;;;;;;;2135791;27;20044;-77
2022/02/09 00:20:30;;;;;;;;;;;;;;;;;;2134896;27;20120;-77
2022/02/09 00:21:47;;;;;;;;;;;;;;;;;;2135446;27;19934;-77
2022/02/09 00:36:12;;;;;;;;;;;;;;;;;;2134474;27;19937;-76
2022/02/09 00:42:46;;;;;;;;;;;;;;;;;;2135543;27;20676;-77
2022/02/09 00:59:40;;;;;;;;;;;;;;;;;;2135706;27;19928;-77
2022/02/09 01:56:26;;;;;;;;;;;;;;;;;;2144345;27;19985;-78
2022/02/09 01:57:31;;;;;;;;;;;;;;;;;;2143990;27;19983;-78
2022/02/09 01:58:33;;;;;;;;;;;;;;;;;;2144033;27;19923;-78
2022/02/09 01:59:38;;;;;;;;;;;;;;;;;;2152723;27;19926;-78
2022/02/09 02:00:40;;;;;;;;;;;;;;;;;;2151392;27;19923;-78
2022/02/09 02:01:42;;;;;;;;;;;;;;;;;;2152261;27;20678;-78
2022/02/09 02:02:43;;;;;;;;;;;;;;;;;;2152268;27;20821;-79
2022/02/09 02:03:45;;;;;;;;;;;;;;;;;;2144290;27;20023;-79
2022/02/09 02:04:48;;;;;;;;;;;;;;;;;;2152537;27;19923;-78
2022/02/09 02:05:50;;;;;;;;;;;;;;;;;;2152080;27;19922;-78
2022/02/09 02:06:55;;;;;;;;;;;;;;;;;;2144071;27;19938;-78
2022/02/09 02:08:00;;;;;;;;;;;;;;;;;;2152507;27;20757;-78
2022/02/09 02:09:02;;;;;;;;;;;;;;;;;;2142888;27;20611;-79
2022/02/09 02:10:08;;;;;;;;;;;;;;;;;;2135589;27;19935;-77
2022/02/09 02:12:23;;;;;;;;;;;;;;;;;;2150627;27;20050;-76
2022/02/09 02:13:38;;;;;;;;;;;;;;;;;;2152070;27;20644;-77
2022/02/09 02:14:59;;;;;;;;;;;;;;;;;;2141515;27;19931;-77
2022/02/09 02:17:28;;;;;;;;;;;;;;;;;;2144153;27;19927;-77
2022/02/09 02:18:31;;;;;;;;;;;;;;;;;;2152342;27;20714;-78
2022/02/09 02:20:52;;;;;;;;;;;;;;;;;;2144333;27;19923;-76
2022/02/09 02:34:26;;;;;;;;;;;;;;;;;;2118466;28;19931;-76
2022/02/09 02:38:19;;;;;;;;;;;;;;;;;;2136413;27;19927;-75
2022/02/09 02:39:44;;;;;;;;;;;;;;;;;;2136136;27;19977;-75
2022/02/09 03:10:29;;;;;;;;;;;;;;;;;;2136202;27;19934;-77
2022/02/09 03:13:03;;;;;;;;;;;;;;;;;;2136201;27;19923;-77
2022/02/09 03:14:12;;;;;;;;;;;;;;;;;;2143945;27;19927;-76
2022/02/09 03:15:34;;;;;;;;;;;;;;;;;;2142190;27;20720;-76
2022/02/09 03:16:43;;;;;;;;;;;;;;;;;;2144453;27;19930;-76
2022/02/09 03:17:54;;;;;;;;;;;;;;;;;;2134554;27;19930;-75
2022/02/09 03:20:36;;;;;;;;;;;;;;;;;;2121774;27;19995;-76
2022/02/09 03:23:03;;;;;;;;;;;;;;;;;;2136260;27;19930;-76
2022/02/09 03:24:15;;;;;;;;;;;;;;;;;;2143074;27;19922;-76
2022/02/09 03:46:22;;;;;;;;;;;;;;;;;;2126262;27;20035;-76
2022/02/09 03:47:44;;;;;;;;;;;;;;;;;;2134196;27;20789;-75
2022/02/09 03:51:32;;;;;;;;;;;;;;;;;;2143880;27;20071;-75
2022/02/09 03:57:42;;;;;;;;;;;;;;;;;;2143617;27;20012;-76
2022/02/09 03:58:44;;;;;;;;;;;;;;;;;;2151822;27;19934;-76
2022/02/09 03:59:46;;;;;;;;;;;;;;;;;;2142841;27;20111;-75
2022/02/09 04:00:48;;;;;;;;;;;;;;;;;;2134671;27;20041;-75
2022/02/09 04:01:51;;;;;;;;;;;;;;;;;;2152330;27;20045;-76
2022/02/09 04:03:00;;;;;;;;;;;;;;;;;;2151719;27;19981;-75
2022/02/09 04:04:04;;;;;;;;;;;;;;;;;;2152611;27;19926;-75
2022/02/09 04:05:07;;;;;;;;;;;;;;;;;;2143524;27;19927;-75
2022/02/09 04:06:09;;;;;;;;;;;;;;;;;;2135623;27;19927;-75
2022/02/09 04:07:12;;;;;;;;;;;;;;;;;;2144181;27;19923;-75
2022/02/09 04:08:18;;;;;;;;;;;;;;;;;;2152536;27;19975;-76
2022/02/09 04:09:27;;;;;;;;;;;;;;;;;;2151782;27;20667;-75
2022/02/09 04:10:39;;;;;;;;;;;;;;;;;;2152740;27;19981;-76
2022/02/09 04:11:52;;;;;;;;;;;;;;;;;;2142511;27;19931;-76
2022/02/09 04:13:11;;;;;;;;;;;;;;;;;;2135956;27;19928;-76
2022/02/09 04:18:43;;;;;;;;;;;;;;;;;;2144467;27;20000;-76
2022/02/09 04:37:11;;;;;;;;;;;;;;;;;;2144563;27;19927;-77
2022/02/09 04:39:28;;;;;;;;;;;;;;;;;;2144677;27;20003;-76
2022/02/09 04:50:39;;;;;;;;;;;;;;;;;;2144452;27;20057;-77
2022/02/09 04:53:19;;;;;;;;;;;;;;;;;;2151888;27;19923;-75
2022/02/09 04:54:31;;;;;;;;;;;;;;;;;;2152473;27;19936;-74
2022/02/09 04:57:02;;;;;;;;;;;;;;;;;;2138272;27;19981;-75
2022/02/09 04:58:39;;;;;;;;;;;;;;;;;;2152209;27;20757;-77
2022/02/09 05:01:05;;;;;;;;;;;;;;;;;;2143998;27;19931;-75
2022/02/09 05:23:48;;;;;;;;;;;;;;;;;;2137860;27;19982;-76
2022/02/09 05:28:19;;;;;;;;;;;;;;;;;;2143868;27;19927;-76
2022/02/09 05:29:21;;;;;;;;;;;;;;;;;;2146536;27;19978;-76
2022/02/09 05:30:22;;;;;;;;;;;;;;;;;;2134634;27;19935;-76
2022/02/09 05:31:25;;;;;;;;;;;;;;;;;;2126416;27;19985;-76
2022/02/09 05:32:28;;;;;;;;;;;;;;;;;;2143269;27;20742;-77
2022/02/09 05:33:30;;;;;;;;;;;;;;;;;;2134166;27;19924;-77
2022/02/09 05:34:33;;;;;;;;;;;;;;;;;;2135079;27;19966;-77
2022/02/09 05:35:36;;;;;;;;;;;;;;;;;;2143219;27;19930;-76
2022/02/09 05:36:38;;;;;;;;;;;;;;;;;;2135995;27;19996;-76
2022/02/09 05:37:41;;;;;;;;;;;;;;;;;;2135605;27;19927;-76
2022/02/09 05:38:43;;;;;;;;;;;;;;;;;;2135540;27;20845;-76
2022/02/09 05:39:45;;;;;;;;;;;;;;;;;;2143782;27;19923;-76
2022/02/09 05:40:48;;;;;;;;;;;;;;;;;;2134467;27;19923;-76
2022/02/09 05:41:51;;;;;;;;;;;;;;;;;;2135662;27;19934;-76
2022/02/09 05:42:53;;;;;;;;;;;;;;;;;;2143433;27;19971;-77
2022/02/09 05:43:56;;;;;;;;;;;;;;;;;;2136703;27;19931;-78
2022/02/09 05:45:04;;;;;;;;;;;;;;;;;;2145151;27;20053;-76
2022/02/09 05:50:12;;;;;;;;;;;;;;;;;;2135463;27;19984;-78
2022/02/09 05:52:32;;;;;;;;;;;;;;;;;;2125708;27;20742;-77
2022/02/09 05:57:42;;;;;;;;;;;;;;;;;;2118531;27;19934;-76
2022/02/09 05:59:02;;;;;;;;;;;;;;;;;;2116164;28;20802;-77
2022/02/09 06:00:03;;;;;;;;;;;;;;;;;;2116923;28;20110;-77
2022/02/09 06:01:06;;;;;;;;;;;;;;;;;;2107999;28;20002;-77
2022/02/09 06:02:10;;;;;;;;;;;;;;;;;;2109131;28;20021;-78
2022/02/09 06:03:12;;;;;;;;;;;;;;;;;;2108511;28;20013;-77
2022/02/09 06:04:14;;;;;;;;;;;;;;;;;;2108685;28;19935;-77
2022/02/09 06:05:16;;;;;;;;;;;;;;;;;;2108618;28;19925;-76
2022/02/09 06:06:18;;;;;;;;;;;;;;;;;;2109108;28;19929;-77
2022/02/09 06:07:21;;;;;;;;;;;;;;;;;;2116758;28;20009;-76
2022/02/09 06:08:23;;;;;;;;;;;;;;;;;;2108659;28;19924;-76
2022/02/09 06:09:27;;;;;;;;;;;;;;;;;;2108426;28;19924;-78
2022/02/09 06:10:32;;;;;;;;;;;;;;;;;;2108715;28;19929;-76
2022/02/09 06:12:55;;;;;;;;;;;;;;;;;;2116268;28;20805;-76
2022/02/09 06:15:33;;;;;;;;;;;;;;;;;;2116818;28;19983;-79
2022/02/09 06:20:48;;;;;;;;;;;;;;;;;;2116109;28;19928;-78
2022/02/09 06:21:54;;;;;;;;;;;;;;;;;;2108839;28;19929;-77
2022/02/09 06:22:56;;;;;;;;;;;;;;;;;;2108461;28;20886;-77
2022/02/09 06:24:01;;;;;;;;;;;;;;;;;;2115050;27;19928;-76
2022/02/09 06:25:04;;;;;;;;;;;;;;;;;;2125588;27;20632;-76
2022/02/09 06:26:05;;;;;;;;;;;;;;;;;;2121516;27;19982;-76
2022/02/09 06:27:08;;;;;;;;;;;;;;;;;;2109168;28;20050;-77
2022/02/09 06:28:10;;;;;;;;;;;;;;;;;;2113304;28;19928;-76
2022/02/09 06:29:12;;;;;;;;;;;;;;;;;;2104517;28;19972;-76
2022/02/09 06:30:14;;;;;;;;;;;;;;;;;;2126407;27;19924;-75
2022/02/09 06:31:15;;;;;;;;;;;;;;;;;;2139525;27;20780;-77
2022/02/09 06:32:19;;;;;;;;;;;;;;;;;;2133262;27;19927;-80
2022/02/09 06:33:24;;;;;;;;;;;;;;;;;;2141555;27;20709;-79
2022/02/09 06:34:28;;;;;;;;;;;;;;;;;;2133044;27;20008;-79
2022/02/09 06:36:01;;;;;;;;;;;;;;;;;;2134263;27;20042;-78
2022/02/09 06:38:23;;;;;;;;;;;;;;;;;;2135968;27;19927;-78
2022/02/09 06:39:29;;;;;;;;;;;;;;;;;;2133772;27;19928;-79
2022/02/09 06:40:36;;;;;;;;;;;;;;;;;;2131228;27;20670;-71
2022/02/09 06:41:39;;;;;;;;;;;;;;;;;;2141962;27;20066;-73
2022/02/09 06:42:42;;;;;;;;;;;;;;;;;;2141380;27;19930;-65
2022/02/09 06:43:43;;;;;;;;;;;;;;;;;;2142248;27;19970;-66
2022/02/09 06:44:46;;;;;;;;;;;;;;;;;;2140511;27;20065;-64
2022/02/09 06:45:47;;;;;;;;;;;;;;;;;;2131425;27;19923;-65
2022/02/09 06:46:50;;;;;;;;;;;;;;;;;;2123316;27;20014;-68
2022/02/09 06:47:54;;;;;;;;;;;;;;;;;;2133511;27;19927;-75
2022/02/09 06:48:57;;;;;;;;;;;;;;;;;;2141826;27;19950;-73
2022/02/09 06:50:06;;;;;;;;;;;;;;;;;;2140493;27;20791;-63
2022/02/09 06:51:12;;;;;;;;;;;;;;;;;;2150025;27;19960;-68
2022/02/09 06:52:14;;;;;;;;;;;;;;;;;;2140328;27;20832;-67
2022/02/09 06:53:32;;;;;;;;;;;;;;;;;;2124445;27;19989;-75
2022/02/09 06:54:44;;;;;;;;;;;;;;;;;;2125852;27;20754;-75
2022/02/09 06:56:26;;;;;;;;;;;;;;;;;;2125930;27;19954;-68
2022/02/09 06:57:31;;;;;;;;;;;;;;;;;;2134040;27;20019;-70
2022/02/09 06:59:41;;;;;;;;;;;;;;;;;;2141391;27;19990;-68
2022/02/09 07:00:42;;;;;;;;;;;;;;;;;;2142086;27;20045;-72
2022/02/09 07:01:49;;;;;;;;;;;;;;;;;;2132679;27;19927;-70
2022/02/09 07:02:57;;;;;;;;;;;;;;;;;;2126295;27;19935;-74
2022/02/09 07:04:02;;;;;;;;;;;;;;;;;;2125781;27;19934;-73
2022/02/09 07:05:08;;;;;;;;;;;;;;;;;;2133574;27;19927;-69
2022/02/09 07:06:15;;;;;;;;;;;;;;;;;;2133179;27;20725;-71
2022/02/09 07:07:21;;;;;;;;;;;;;;;;;;2133153;27;19927;-66
2022/02/09 07:08:30;;;;;;;;;;;;;;;;;;2141411;27;19927;-69
2022/02/09 07:09:35;;;;;;;;;;;;;;;;;;2133214;27;20015;-72
2022/02/09 07:10:40;;;;;;;;;;;;;;;;;;2132776;27;20046;-69
2022/02/09 07:11:41;;;;;;;;;;;;;;;;;;2142521;27;20695;-66
2022/02/09 07:12:48;;;;;;;;;;;;;;;;;;2141773;27;20057;-68
2022/02/09 07:13:52;;;;;;;;;;;;;;;;;;2128539;27;20063;-69
2022/02/09 07:14:58;;;;;;;;;;;;;;;;;;2132754;27;19932;-75
2022/02/09 07:16:05;;;;;;;;;;;;;;;;;;2142603;27;19927;-72
2022/02/09 07:17:09;;;;;;;;;;;;;;;;;;2133250;27;19923;-65
2022/02/09 07:18:15;;;;;;;;;;;;;;;;;;2126939;27;20005;-66
2022/02/09 07:19:19;;;;;;;;;;;;;;;;;;2126341;27;20079;-67
2022/02/09 07:20:25;;;;;;;;;;;;;;;;;;2135450;27;21547;-72
2022/02/09 07:21:31;;;;;;;;;;;;;;;;;;2142800;27;19973;-71
2022/02/09 07:22:37;;;;;;;;;;;;;;;;;;2134017;27;19928;-66
2022/02/09 07:23:44;;;;;;;;;;;;;;;;;;2135355;27;20772;-69
2022/02/09 07:24:49;;;;;;;;;;;;;;;;;;2131747;27;19934;-68
2022/02/09 07:27:26;;;;;;;;;;;;;;;;;;2142546;27;20000;-66
2022/02/09 07:28:30;;;;;;;;;;;;;;;;;;2132423;27;19958;-68
2022/02/09 07:29:34;;;;;;;;;;;;;;;;;;2134455;27;20772;-70
2022/02/09 07:30:37;;;;;;;;;;;;;;;;;;2134222;27;19947;-72
2022/02/09 07:31:39;;;;;;;;;;;;;;;;;;2134878;27;19924;-69
2022/02/09 07:32:41;;;;;;;;;;;;;;;;;;2144102;27;19923;-66
2022/02/09 07:33:45;;;;;;;;;;;;;;;;;;2141889;27;19934;-68
2022/02/09 07:34:50;;;;;;;;;;;;;;;;;;2141782;27;19989;-70
2022/02/09 07:35:55;;;;;;;;;;;;;;;;;;2142875;27;19923;-64
2022/02/09 07:36:58;;;;;;;;;;;;;;;;;;2149270;27;19970;-68
2022/02/09 07:38:03;;;;;;;;;;;;;;;;;;2143116;27;19927;-73
2022/02/09 07:39:07;;;;;;;;;;;;;;;;;;2134462;27;19931;-64
2022/02/09 07:40:11;;;;;;;;;;;;;;;;;;2143515;27;20062;-77
2022/02/09 07:41:12;;;;;;;;;;;;;;;;;;2143542;27;19929;-71
2022/02/09 07:42:24;;;;;;;;;;;;;;;;;;2143555;27;20045;-68
2022/02/09 07:43:39;;;;;;;;;;;;;;;;;;2143744;27;19927;-63
2022/02/09 07:50:02;;;;;;;;;;;;;;;;;;2142011;27;20785;-69
2022/02/09 07:51:27;;;;;;;;;;;;;;;;;;2142291;27;20004;-68
2022/02/09 07:52:48;;;;;;;;;;;;;;;;;;2139749;27;19927;-66
2022/02/09 07:54:11;;;;;;;;;;;;;;;;;;2142635;27;19945;-67
2022/02/09 07:55:13;;;;;;;;;;;;;;;;;;2142037;27;19951;-67
2022/02/09 07:56:16;;;;;;;;;;;;;;;;;;2142531;27;20881;-65
2022/02/09 07:57:19;;;;;;;;;;;;;;;;;;2142001;27;19934;-70
2022/02/09 07:58:22;;;;;;;;;;;;;;;;;;2142184;27;19927;-74
2022/02/09 07:59:26;;;;;;;;;;;;;;;;;;2142754;27;21084;-72
2022/02/09 08:00:27;;;;;;;;;;;;;;;;;;2132330;27;19924;-68
2022/02/09 08:01:29;;;;;;;;;;;;;;;;;;2133651;27;19928;-73
2022/02/09 08:02:33;;;;;;;;;;;;;;;;;;2142321;27;19976;-66
2022/02/09 08:03:36;;;;;;;;;;;;;;;;;;2142401;27;19934;-65
2022/02/09 08:04:40;;;;;;;;;;;;;;;;;;2141919;27;19966;-65
2022/02/09 08:05:42;;;;;;;;;;;;;;;;;;2142036;27;19931;-68
2022/02/09 08:06:45;;;;;;;;;;;;;;;;;;2142119;27;19923;-66
2022/02/09 08:07:47;;;;;;;;;;;;;;;;;;2141280;27;20766;-67
2022/02/09 08:08:50;;;;;;;;;;;;;;;;;;2141861;27;20053;-67
2022/02/09 08:09:52;;;;;;;;;;;;;;;;;;2142266;27;19927;-66
2022/02/09 08:10:59;;;;;;;;;;;;;;;;;;2141365;27;19934;-72
2022/02/09 08:20:56;;;;;;;;;;;;;;;;;;2142610;27;19927;-70
2022/02/09 08:25:58;;;;;;;;;;;;;;;;;;2141646;27;20775;-71
2022/02/09 08:26:49;;;;;;;;;;;;;;;;;;2142979;27;20703;-71
2022/02/09 08:27:57;;;;;;;;;;;;;;;;;;2132708;27;19923;-71
2022/02/09 08:29:27;;;;;;;;;;;;;;;;;;2142281;27;19927;-69
2022/02/09 08:33:07;;;;;;;;;;;;;;;;;;2142862;27;20065;-71
2022/02/09 08:34:09;;;;;;;;;;;;;;;;;;2133213;27;19927;-67
2022/02/09 08:35:12;;;;;;;;;;;;;;;;;;2134534;27;20004;-66
2022/02/09 08:36:17;;;;;;;;;;;;;;;;;;2142253;27;20790;-63
2022/02/09 08:37:19;;;;;;;;;;;;;;;;;;2142501;27;19984;-65
2022/02/09 08:38:21;;;;;;;;;;;;;;;;;;2143197;27;19927;-68
2022/02/09 08:39:23;;;;;;;;;;;;;;;;;;2142966;27;19938;-66
2022/02/09 08:40:26;;;;;;;;;;;;;;;;;;2143438;27;19927;-64
2022/02/09 08:41:28;;;;;;;;;;;;;;;;;;2142486;27;20067;-65
2022/02/09 08:42:29;;;;;;;;;;;;;;;;;;2143068;27;19934;-65
2022/02/09 08:43:32;;;;;;;;;;;;;;;;;;2143006;27;19930;-65
2022/02/09 08:44:34;;;;;;;;;;;;;;;;;;2133172;27;20088;-69
2022/02/09 08:45:37;;;;;;;;;;;;;;;;;;2133964;27;19927;-69
2022/02/09 08:46:42;;;;;;;;;;;;;;;;;;2133566;27;19930;-65
2022/02/09 08:47:47;;;;;;;;;;;;;;;;;;2143193;27;19970;-71
2022/02/09 08:48:49;;;;;;;;;;;;;;;;;;2142171;27;20709;-73
2022/02/09 08:49:51;;;;;;;;;;;;;;;;;;2142959;27;19927;-65
2022/02/09 08:50:53;;;;;;;;;;;;;;;;;;2142966;27;19979;-67
2022/02/09 08:51:55;;;;;;;;;;;;;;;;;;2133496;27;21002;-67
2022/02/09 08:52:57;;;;;;;;;;;;;;;;;;2134386;27;20005;-69
2022/02/09 08:53:58;;;;;;;;;;;;;;;;;;2142754;27;20016;-67
2022/02/09 08:55:00;;;;;;;;;;;;;;;;;;2142976;27;19999;-68
2022/02/09 08:56:02;;;;;;;;;;;;;;;;;;2133428;27;19927;-69
2022/02/09 08:57:09;;;;;;;;;;;;;;;;;;2134027;27;19935;-71
2022/02/09 08:58:15;;;;;;;;;;;;;;;;;;2143662;27;20003;-66
2022/02/09 08:59:22;;;;;;;;;;;;;;;;;;2140571;27;19923;-71
2022/02/09 09:00:29;;;;;;;;;;;;;;;;;;2142530;27;19927;-64
2022/02/09 09:01:46;;;;;;;;;;;;;;;;;;2143512;27;20891;-70
2022/02/09 09:02:58;;;;;;;;;;;;;;;;;;2140929;27;20046;-66
2022/02/09 09:04:03;;;;;;;;;;;;;;;;;;2131823;27;19928;-66
2022/02/09 09:05:14;;;;;;;;;;;;;;;;;;2135451;27;19930;-67
2022/02/09 09:06:20;;;;;;;;;;;;;;;;;;2133861;27;19923;-67
2022/02/09 09:07:32;;;;;;;;;;;;;;;;;;2133913;27;20699;-66
2022/02/09 09:09:52;;;;;;;;;;;;;;;;;;2129531;27;20704;-62
2022/02/09 10:01:23;;;;;;;;;;;;;;;;;;2132919;27;20039;-72
2022/02/09 10:02:27;;;;;;;;;;;;;;;;;;2130557;27;20005;-71
2022/02/09 10:32:52;;;;;;;;;;;;;;;;;;2142471;27;19927;-66
2022/02/09 10:33:55;;;;;;;;;;;;;;;;;;2141939;27;19978;-70
2022/02/09 10:34:57;;;;;;;;;;;;;;;;;;2141761;27;20012;-69
2022/02/09 10:36:03;;;;;;;;;;;;;;;;;;2142801;27;19927;-72
2022/02/09 10:37:07;;;;;;;;;;;;;;;;;;2131955;27;19936;-69
2022/02/09 10:38:08;;;;;;;;;;;;;;;;;;2132715;27;19935;-67
2022/02/09 10:39:11;;;;;;;;;;;;;;;;;;2142188;27;19923;-70
2022/02/09 10:40:14;;;;;;;;;;;;;;;;;;2141901;27;19923;-63
2022/02/09 10:41:21;;;;;;;;;;;;;;;;;;2142501;27;19934;-66
2022/02/09 10:42:32;;;;;;;;;;;;;;;;;;2141242;27;20605;-62
2022/02/09 10:43:36;;;;;;;;;;;;;;;;;;2141370;27;19931;-63
2022/02/09 10:44:44;;;;;;;;;;;;;;;;;;2141567;27;20741;-69
2022/02/09 10:45:48;;;;;;;;;;;;;;;;;;2141444;27;19923;-67
2022/02/09 10:46:49;;;;;;;;;;;;;;;;;;2141996;27;20045;-64
2022/02/09 10:47:51;;;;;;;;;;;;;;;;;;2139945;27;20015;-65
2022/02/09 10:48:56;;;;;;;;;;;;;;;;;;2140553;27;19933;-65
2022/02/09 10:49:58;;;;;;;;;;;;;;;;;;2142483;27;20031;-62
2022/02/09 10:51:00;;;;;;;;;;;;;;;;;;2142869;27;19934;-69
2022/02/09 10:53:04;;;;;;;;;;;;;;;;;;2142181;27;19934;-64
2022/02/09 10:54:06;;;;;;;;;;;;;;;;;;2143020;27;19966;-65
2022/02/09 10:55:07;;;;;;;;;;;;;;;;;;2142708;27;21602;-64
2022/02/09 10:56:09;;;;;;;;;;;;;;;;;;2142659;27;20041;-69
2022/02/09 10:57:11;;;;;;;;;;;;;;;;;;2142611;27;20825;-66
2022/02/09 10:58:13;;;;;;;;;;;;;;;;;;2141930;27;19926;-69
2022/02/09 10:59:14;;;;;;;;;;;;;;;;;;2142749;27;20000;-64
2022/02/09 11:00:16;;;;;;;;;;;;;;;;;;2141304;27;19927;-66
2022/02/09 11:01:18;;;;;;;;;;;;;;;;;;2142664;27;20068;-66
2022/02/09 11:02:21;;;;;;;;;;;;;;;;;;2143137;27;19933;-65
2022/02/09 11:03:23;;;;;;;;;;;;;;;;;;2142652;27;20125;-66
2022/02/09 11:04:25;;;;;;;;;;;;;;;;;;2143712;27;20037;-63
2022/02/09 11:05:26;;;;;;;;;;;;;;;;;;2140927;27;20727;-64
2022/02/09 11:06:28;;;;;;;;;;;;;;;;;;2142173;27;19996;-65
2022/02/09 11:07:30;;;;;;;;;;;;;;;;;;2140810;27;19934;-63
2022/02/09 11:08:32;;;;;;;;;;;;;;;;;;2141472;27;20049;-66
2022/02/09 11:09:35;;;;;;;;;;;;;;;;;;2142087;27;19927;-66
2022/02/09 11:10:39;;;;;;;;;;;;;;;;;;2142299;27;20003;-67
2022/02/09 11:11:42;;;;;;;;;;;;;;;;;;2143081;27;19927;-67
2022/02/09 11:12:44;;;;;;;;;;;;;;;;;;2141923;27;20819;-66
2022/02/09 11:13:45;;;;;;;;;;;;;;;;;;2142802;27;20040;-69
2022/02/09 11:14:47;;;;;;;;;;;;;;;;;;2142779;27;19996;-64
2022/02/09 11:15:49;;;;;;;;;;;;;;;;;;2142765;27;20547;-68
2022/02/09 11:16:51;;;;;;;;;;;;;;;;;;2143233;27;19926;-66
2022/02/09 11:17:53;;;;;;;;;;;;;;;;;;2142521;27;19927;-64
2022/02/09 11:18:57;;;;;;;;;;;;;;;;;;2140462;27;19927;-65
2022/02/09 11:19:59;;;;;;;;;;;;;;;;;;2142461;27;19932;-65
2022/02/09 11:21:05;;;;;;;;;;;;;;;;;;2142859;27;19933;-63
2022/02/09 11:22:09;;;;;;;;;;;;;;;;;;2143340;27;20799;-64
2022/02/09 11:23:12;;;;;;;;;;;;;;;;;;2142439;27;20718;-62
2022/02/09 11:24:14;;;;;;;;;;;;;;;;;;2143001;27;19926;-65
2022/02/09 11:25:19;;;;;;;;;;;;;;;;;;2133417;27;20000;-61
2022/02/09 11:26:21;;;;;;;;;;;;;;;;;;2130566;27;20174;-65
2022/02/09 11:27:30;;;;;;;;;;;;;;;;;;2140948;27;20046;-66
2022/02/09 11:28:38;;;;;;;;;;;;;;;;;;2141969;27;19951;-65
2022/02/09 11:29:57;;;;;;;;;;;;;;;;;;2142526;27;19987;-64
2022/02/09 11:30:58;;;;;;;;;;;;;;;;;;2141976;27;19927;-63
2022/02/09 11:32:00;;;;;;;;;;;;;;;;;;2139584;27;20794;-62
2022/02/09 11:33:10;;;;;;;;;;;;;;;;;;2142316;27;19923;-63
2022/02/09 11:34:18;;;;;;;;;;;;;;;;;;2142194;27;19985;-63
2022/02/09 11:36:46;;;;;;;;;;;;;;;;;;2134035;27;20139;-62
2022/02/09 11:38:27;;;;;;;;;;;;;;;;;;2142624;27;20041;-62
2022/02/09 11:39:17;;;;;;;;;;;;;;;;;;2135127;27;19934;-63
2022/02/09 11:40:19;;;;;;;;;;;;;;;;;;2139176;27;19934;-65
2022/02/09 11:41:28;;;;;;;;;;;;;;;;;;2142649;27;19927;-68
2022/02/09 11:42:59;;;;;;;;;;;;;;;;;;2139680;27;19927;-63
2022/02/09 11:45:19;;;;;;;;;;;;;;;;;;2142715;27;19927;-65
2022/02/09 11:46:32;;;;;;;;;;;;;;;;;;2140193;27;20000;-64
2022/02/09 11:51:42;;;;;;;;;;;;;;;;;;2142428;27;20765;-65
2022/02/09 11:56:45;;;;;;;;;;;;;;;;;;2142720;27;19946;-68
2022/02/09 11:59:31;;;;;;;;;;;;;;;;;;2141603;27;20230;-68
2022/02/09 12:09:22;;;;;;;;;;;;;;;;;;2140542;27;20007;-63
2022/02/09 12:10:26;;;;;;;;;;;;;;;;;;2142966;27;20023;-64
2022/02/09 12:11:30;;;;;;;;;;;;;;;;;;2139529;27;20027;-65
2022/02/09 12:12:32;;;;;;;;;;;;;;;;;;2141850;27;20032;-66
2022/02/09 12:13:41;;;;;;;;;;;;;;;;;;2140539;27;19927;-66
2022/02/09 12:14:48;;;;;;;;;;;;;;;;;;2141912;27;19923;-65
2022/02/09 12:16:02;;;;;;;;;;;;;;;;;;2138880;27;20037;-66
2022/02/09 12:18:25;;;;;;;;;;;;;;;;;;2141135;27;19966;-62
2022/02/09 12:19:32;;;;;;;;;;;;;;;;;;2141095;27;20759;-68
2022/02/09 12:20:40;;;;;;;;;;;;;;;;;;2139920;27;19999;-70
2022/02/09 12:21:49;;;;;;;;;;;;;;;;;;2141572;27;20686;-62
2022/02/09 12:24:06;;;;;;;;;;;;;;;;;;2141678;27;19927;-64
2022/02/09 12:25:09;;;;;;;;;;;;;;;;;;2141699;27;21133;-63
2022/02/09 12:26:10;;;;;;;;;;;;;;;;;;2142482;27;20611;-65
2022/02/09 12:27:12;;;;;;;;;;;;;;;;;;2141702;27;19927;-68
2022/02/09 12:28:14;;;;;;;;;;;;;;;;;;2138895;27;19950;-63
2022/02/09 12:29:16;;;;;;;;;;;;;;;;;;2141096;27;19927;-70
2022/02/09 12:30:17;;;;;;;;;;;;;;;;;;2141380;27;19933;-71
2022/02/09 12:31:23;;;;;;;;;;;;;;;;;;2141235;27;19935;-66
2022/02/09 12:32:25;;;;;;;;;;;;;;;;;;2140990;27;19923;-69
2022/02/09 12:33:27;;;;;;;;;;;;;;;;;;2142482;27;19927;-72
2022/02/09 12:34:29;;;;;;;;;;;;;;;;;;2131996;27;19935;-70
2022/02/09 12:35:32;;;;;;;;;;;;;;;;;;2133924;27;19927;-70
2022/02/09 12:36:33;;;;;;;;;;;;;;;;;;2142442;27;20705;-70
2022/02/09 12:37:35;;;;;;;;;;;;;;;;;;2141458;27;20057;-70
2022/02/09 12:38:36;;;;;;;;;;;;;;;;;;2141906;27;19930;-66
2022/02/09 12:39:38;;;;;;;;;;;;;;;;;;2141295;27;19927;-70
2022/02/09 12:40:40;;;;;;;;;;;;;;;;;;2132796;27;19930;-65
2022/02/09 12:41:42;;;;;;;;;;;;;;;;;;2131951;27;19982;-66
2022/02/09 12:42:44;;;;;;;;;;;;;;;;;;2132330;27;20046;-70
2022/02/09 12:43:46;;;;;;;;;;;;;;;;;;2126912;27;19927;-63
2022/02/09 12:44:48;;;;;;;;;;;;;;;;;;2132008;27;19927;-62
2022/02/09 12:45:49;;;;;;;;;;;;;;;;;;2132568;27;19978;-68
2022/02/09 12:46:51;;;;;;;;;;;;;;;;;;2123637;27;19939;-67
2022/02/09 12:47:53;;;;;;;;;;;;;;;;;;2124277;27;19973;-64
2022/02/09 12:48:54;;;;;;;;;;;;;;;;;;2131967;27;19990;-63
2022/02/09 12:49:56;;;;;;;;;;;;;;;;;;2140704;27;20685;-63
2022/02/09 12:50:58;;;;;;;;;;;;;;;;;;2132433;27;20686;-64
2022/02/09 12:52:00;;;;;;;;;;;;;;;;;;2132429;27;20049;-64
2022/02/09 12:53:02;;;;;;;;;;;;;;;;;;2143017;27;19933;-63
2022/02/09 12:54:04;;;;;;;;;;;;;;;;;;2141618;27;19927;-68
2022/02/09 12:55:06;;;;;;;;;;;;;;;;;;2142630;27;19923;-68
2022/02/09 12:56:07;;;;;;;;;;;;;;;;;;2141984;27;19923;-66
2022/02/09 12:57:09;;;;;;;;;;;;;;;;;;2133348;27;19931;-66
2022/02/09 12:58:12;;;;;;;;;;;;;;;;;;2133826;27;19935;-65
2022/02/09 12:59:14;;;;;;;;;;;;;;;;;;2141558;27;19923;-64
2022/02/09 13:00:16;;;;;;;;;;;;;;;;;;2142442;27;20765;-64
2022/02/09 13:01:17;;;;;;;;;;;;;;;;;;2131761;27;20699;-72
2022/02/09 13:02:20;;;;;;;;;;;;;;;;;;2133895;27;20046;-63
2022/02/09 13:03:25;;;;;;;;;;;;;;;;;;2142428;27;20040;-66
2022/02/09 13:04:27;;;;;;;;;;;;;;;;;;2132528;27;20026;-64
2022/02/09 13:05:28;;;;;;;;;;;;;;;;;;2133524;27;19996;-64
2022/02/09 13:06:30;;;;;;;;;;;;;;;;;;2132479;27;19967;-63
2022/02/09 13:07:33;;;;;;;;;;;;;;;;;;2133525;27;20727;-70
2022/02/09 13:08:35;;;;;;;;;;;;;;;;;;2141836;27;19927;-66
2022/02/09 13:09:36;;;;;;;;;;;;;;;;;;2141182;27;20840;-66
2022/02/09 13:10:40;;;;;;;;;;;;;;;;;;2142343;27;20586;-66
2022/02/09 13:11:43;;;;;;;;;;;;;;;;;;2141863;27;20708;-62
2022/02/09 13:12:46;;;;;;;;;;;;;;;;;;2132206;27;20050;-63
2022/02/09 13:13:51;;;;;;;;;;;;;;;;;;2124124;27;19996;-68
2022/02/09 13:14:59;;;;;;;;;;;;;;;;;;2133401;27;19927;-67
2022/02/09 13:16:24;;;;;;;;;;;;;;;;;;2142440;27;20479;-63
2022/02/09 13:17:40;;;;;;;;;;;;;;;;;;2141702;27;20745;-68
2022/02/09 13:19:03;;;;;;;;;;;;;;;;;;2141436;27;19927;-66
2022/02/09 13:22:06;;;;;;;;;;;;;;;;;;2140245;27;19927;-69
2022/02/09 14:04:02;;;;;;;;;;;;;;;;;;2106709;28;19925;-64
2022/02/09 14:12:19;;;;;;;;;;;;;;;;;;2141716;27;19923;-68
2022/02/09 14:53:27;;;;;;;;;;;;;;;;;;2142766;27;19926;-65
2022/02/09 14:57:04;;;;;;;;;;;;;;;;;;2139205;27;20050;-66
2022/02/09 14:58:09;;;;;;;;;;;;;;;;;;2133152;27;19927;-65
2022/02/09 14:59:18;;;;;;;;;;;;;;;;;;2126325;27;19940;-65
2022/02/09 15:00:23;;;;;;;;;;;;;;;;;;2126194;27;20774;-67
2022/02/09 15:01:43;;;;;;;;;;;;;;;;;;2134357;27;20062;-68
2022/02/09 15:04:13;;;;;;;;;;;;;;;;;;2142720;27;19929;-63
2022/02/09 15:09:33;;;;;;;;;;;;;;;;;;2142652;27;19927;-62
2022/02/09 15:10:21;;;;;;;;;;;;;;;;;;2140912;27;20710;-70
2022/02/09 15:11:36;;;;;;;;;;;;;;;;;;2133764;27;20917;-64
2022/02/09 15:12:55;;;;;;;;;;;;;;;;;;2133663;27;19949;-65
2022/02/09 15:14:12;;;;;;;;;;;;;;;;;;2133446;27;20062;-62
2022/02/09 15:16:28;;;;;;;;;;;;;;;;;;2134384;27;20823;-67
2022/02/09 15:19:20;;;;;;;;;;;;;;;;;;2143353;27;19949;-65
2022/02/09 15:22:14;;;;;;;;;;;;;;;;;;2143005;27;19924;-65
2022/02/09 15:23:18;;;;;;;;;;;;;;;;;;2142519;27;20077;-62
2022/02/09 15:24:22;;;;;;;;;;;;;;;;;;2143620;27;20026;-71
2022/02/09 15:25:30;;;;;;;;;;;;;;;;;;2142249;27;19927;-66
2022/02/09 15:26:34;;;;;;;;;;;;;;;;;;2142720;27;19934;-64
2022/02/09 15:27:36;;;;;;;;;;;;;;;;;;2142954;27;19927;-68
2022/02/09 15:28:38;;;;;;;;;;;;;;;;;;2141385;27;20633;-64
2022/02/09 15:29:40;;;;;;;;;;;;;;;;;;2142616;27;19923;-64
2022/02/09 15:30:52;;;;;;;;;;;;;;;;;;2140942;27;19974;-66
2022/02/09 15:31:59;;;;;;;;;;;;;;;;;;2141649;27;20029;-67
2022/02/09 15:33:03;;;;;;;;;;;;;;;;;;2143329;27;19933;-65
2022/02/09 15:34:29;;;;;;;;;;;;;;;;;;2142098;27;19923;-67